Aviation Digital Data Service (ADDS)

Output produced by METARs form (0716 UTC 24 March 2019)
found at http://www.aviationweather.gov/metar/data/
 
SAZS 240700Z 18006KT CAVOK 03/00 Q1024
TAF SAZS 240500Z 2406/2506 16005KT CAVOK TX18/2418Z TN01/2410Z 
     BECMG 2414/2416 VRB03KT 
     BECMG 2501/2502 14015KT
       
SABE 240700Z 25006KT 9999 FEW038 20/14 Q1012 NOSIG
TAF SABE 240500Z 2406/2506 32010KT CAVOK TX22/2418Z TN17/2410Z 
     BECMG 2407/2408 22015KT 9999 SCT030 BKN090 
     BECMG 2416/2418 CAVOK
       
SAEZ 240700Z 27006KT CAVOK 17/15 Q1012 NOSIG
TAF SAEZ 240500Z 2406/2506 24010KT 9999 SCT025 TX23/2418Z TN10/2506Z 
     BECMG 2412/2414 24015G25KT CAVOK 
     BECMG 2420/2422 19010KT
       
SADF 240700Z 23006KT CAVOK 17/13 Q1013
TAF SADF 240500Z 2406/2506 34005KT CAVOK TX25/2319Z TN14/2410Z 
     BECMG 2408/2410 25015KT 9999 SCT030 BKN100 
     BECMG 2416/2418 20015KT CAVOK
       
SAVC 240700Z 00000KT CAVOK 10/09 Q1023
TAF SAVC 240500Z 2406/2506 VRB03KT 7000 NSC TX21/2419Z TN07/2410Z 
     TEMPO 2407/2411 0800 FG SCT010 
     BECMG 2412/2414 05010KT 9999 BKN030 
     BECMG 2500/2502 29010KT 9999 SCT040
       
SACO 240700Z 31006KT CAVOK 15/14 Q1016 NOSIG
TAF SACO 240500Z 2406/2506 30005KT CAVOK TX25/2418Z TN17/2410Z 
     BECMG 2412/2414 18015KT 9999 SCT025
       
SARC 240700Z 00000KT CAVOK 17/14 Q1014
SARF 240700Z 20002KT CAVOK 19/17 Q1014
TAF SARF 240500Z 2406/2506 VRB03KT CAVOK TX31/2418Z TN18/2409Z
       
SARI 240700Z 05004KT CAVOK 21/20 Q1015
TAF SARI 240500Z 2406/2506 VRB03KT CAVOK TX30/2418Z TN18/2409Z
       
SASJ 240700Z 29004KT CAVOK 13/13 Q1017
TAF SASJ 240500Z 2406/2506 09006KT 9999 BKN030 TX28/2418Z TN16/2410Z 
     BECMG 2414/2416 18010KT 9999 SCT015 BKN025
       
SAZM 240700Z 29008KT CAVOK 13/11 Q1009
TAF SAZM 240500Z 2406/2506 29005KT CAVOK TX18/2418Z TN11/2410Z 
     BECMG 2407/2408 6000 SCT015 
     BECMG 2411/2412 27015KT 9999 NSW SCT030 
     TEMPO 2412/2418 23025G35KT 6000 SHRA FEW040CB BKN050 
     TEMPO 2422/2502 20015G30KT 7000 SHRA FEW035CB BKN030
       
SAME 240700Z 18008KT CAVOK 22/06 Q1020
TAF SAME 232300Z 2400/2424 VRB03KT CAVOK TN15/2410Z TX26/2420Z 
     BECMG 2402/2404 18010KT 9999 FEW040 
     BECMG 2416/2418 14005KT 9999 FEW040
       
SAZN 240700Z 23002KT CAVOK 13/M01 Q1022
TAF SAZN 240500Z 2406/2506 VRB03KT CAVOK TX22/2419Z TN09/2410Z 
     BECMG 2411/2413 07010KT
       
SARL 240700Z 23002KT CAVOK 16/15 Q1015
SARP 240700Z 16003KT CAVOK 20/17 Q1015
TAF SARP 240500Z 2406/2506 VRB03KT CAVOK TX31/2418Z TN18/2409Z
       
SARE 240700Z 24002KT CAVOK 16/16 Q1014
TAF SARE 240500Z 2406/2506 VRB03KT 5000 FU NSC TX31/2418Z TN17/2409Z
       
SAOC 240700Z 27006KT CAVOK 16/14 Q1017
SAWG 240700Z 29005KT 9999 FEW025 OVC070 11/10 Q1016
TAF SAWG 240500Z 2406/2506 02015KT 8000 RA BKN020 OVC050 TX17/2419Z TN05/2506Z 
     TEMPO 2406/2409 2000 DZ BR OVC010 
     BECMG 2411/2413 29015KT 9999 NSW BKN030 BKN040 
     BECMG 2423/2501 25025KT 9999 SCT030
       
SAWE 240700Z 34020G30KT 9999 RA BKN015 OVC050 10/08 Q1015
TAF SAWE 240500Z 2406/2506 32020KT 9999 BKN010 OVC050 TX14/2419Z TN07/2410Z 
     TEMPO 2406/2409 5000 RA OVC010 
     BECMG 2409/2410 30025KT 9999 NSW BKN025 BKN040 
     BECMG 2423/2501 27020G30KT
       
SAAR 240700Z 29002KT CAVOK 14/14 Q1014
TAF SAAR 240500Z 2406/2506 VRB03KT CAVOK TX27/2319Z TN14/2409Z 
     BECMG 2407/2408 5000 MIFG BR NSC 
     BECMG 2411/2413 18015KT CAVOK 
     BECMG 2418/2420 20005KT
       
SASA 240700Z 14004KT 9999 FEW010 12/11 Q1018
TAF SASA 240500Z 2406/2506 02008KT 9999 SCT025 TX27/2418Z TN13/2410Z 
     BECMG 2414/2416 16010KT 9999 SCT015 BKN025
       
SANT 240700Z 36006KT CAVOK 20/18 Q1014
TAF SANT 240500Z 2406/2506 23005KT 9999 SCT030 TX29/2418Z TN17/2410Z 
     BECMG 2412/2415 20005KT 9999 SCT025
       
SAWH 240700Z 23005KT 9999 DZ BKN040 BKN070 09/08 Q1012
TAF SAWH 240500Z 2406/2506 36015KT 7000 RA BKN020 BKN050 TX15/2419Z TN03/2506Z 
     BECMG 2408/2410 9999 NSW BKN030 
     BECMG 2422/2424 25030KT 
     TEMPO 2423/2504 5000 SHRA BKN030 OVC050